NKS2193 KFLL-KJAX
Flight info
| Callsign | NKS2193 |
|---|---|
| Flight time | 0h 54m |
| Altitude | 30000 |
| Route | FRSBE2 STYMY ORL/N0429F310 HAINY QUBEN2 |
| Aircraft | A20N/M-SDE2E3FGHIRWXY/LB1 |
Departure
| Time | 2026-05-03 20:21 |
|---|---|
| Airport | Fort Lauderdale Hollywood International Airport (KFLL) |
Arrival
| Time | 2026-05-03 21:15 |
|---|---|
| Airport | Jacksonville International Airport (KJAX) |
| Time | Latitude | Longitude | Altitude | Speed | Heading |
|---|---|---|---|---|---|
| 2026-05-03 20:15 | 26.07358 | -80.15127 | 24 ft | 17 kts | 0° |
| 2026-05-03 20:15 | 26.07466 | -80.15135 | 23 ft | 14 kts | 334° |
| 2026-05-03 20:15 | 26.07488 | -80.15240 | 20 ft | 16 kts | 268° |
| 2026-05-03 20:15 | 26.07489 | -80.15377 | 19 ft | 18 kts | 270° |
| 2026-05-03 20:16 | 26.07492 | -80.15515 | 21 ft | 18 kts | 271° |
| 2026-05-03 20:16 | 26.07493 | -80.15660 | 23 ft | 19 kts | 268° |
| 2026-05-03 20:16 | 26.07493 | -80.15818 | 23 ft | 21 kts | 271° |
| 2026-05-03 20:16 | 26.07494 | -80.15981 | 27 ft | 21 kts | 270° |
| 2026-05-03 20:17 | 26.07496 | -80.16147 | 29 ft | 22 kts | 271° |
| 2026-05-03 20:17 | 26.07495 | -80.16306 | 27 ft | 21 kts | 271° |
| 2026-05-03 20:17 | 26.07496 | -80.16433 | 27 ft | 15 kts | 271° |
| 2026-05-03 20:17 | 26.07498 | -80.16535 | 28 ft | 11 kts | 271° |
| 2026-05-03 20:18 | 26.07511 | -80.16628 | 26 ft | 14 kts | 309° |
| 2026-05-03 20:18 | 26.07581 | -80.16643 | 27 ft | 5 kts | 0° |
| 2026-05-03 20:18 | 26.07587 | -80.16643 | 26 ft | 0 kts | 0° |
| 2026-05-03 20:19 | 26.07594 | -80.16643 | 26 ft | 3 kts | 0° |
| 2026-05-03 20:19 | 26.07632 | -80.16643 | 25 ft | 8 kts | 0° |
| 2026-05-03 20:19 | 26.07685 | -80.16619 | 25 ft | 9 kts | 50° |
| 2026-05-03 20:20 | 26.07696 | -80.16553 | 29 ft | 0 kts | 90° |
| 2026-05-03 20:20 | 26.07696 | -80.16532 | 26 ft | 21 kts | 90° |
| 2026-05-03 20:20 | 26.07692 | -80.16022 | 27 ft | 112 kts | 90° |
| 2026-05-03 20:20 | 26.07687 | -80.14841 | 185 ft | 174 kts | 89° |
| 2026-05-03 20:21 | 26.07685 | -80.13539 | 1214 ft | 171 kts | 88° |
| 2026-05-03 20:21 | 26.07681 | -80.12162 | 2097 ft | 190 kts | 88° |
| 2026-05-03 20:21 | 26.07678 | -80.10566 | 2554 ft | 222 kts | 89° |
| 2026-05-03 20:21 | 26.07678 | -80.08701 | 2978 ft | 261 kts | 88° |
| 2026-05-03 20:22 | 26.08171 | -80.06664 | 3597 ft | 291 kts | 58° |
| 2026-05-03 20:22 | 26.09612 | -80.05085 | 3916 ft | 286 kts | 26° |
| 2026-05-03 20:22 | 26.11455 | -80.04641 | 4232 ft | 268 kts | 351° |
| 2026-05-03 20:22 | 26.13238 | -80.05240 | 4886 ft | 269 kts | 337° |
| 2026-05-03 20:23 | 26.15073 | -80.05741 | 5561 ft | 275 kts | 353° |
| 2026-05-03 20:23 | 26.16984 | -80.05761 | 5945 ft | 279 kts | 350° |
| 2026-05-03 20:23 | 26.18857 | -80.06182 | 6118 ft | 274 kts | 341° |
| 2026-05-03 20:23 | 26.20705 | -80.06789 | 5933 ft | 276 kts | 334° |
| 2026-05-03 20:24 | 26.22252 | -80.07942 | 5864 ft | 263 kts | 310° |
| 2026-05-03 20:24 | 26.23228 | -80.09643 | 5978 ft | 262 kts | 294° |
| 2026-05-03 20:24 | 26.23945 | -80.11521 | 6124 ft | 264 kts | 290° |
| 2026-05-03 20:24 | 26.24616 | -80.13436 | 6745 ft | 265 kts | 289° |
| 2026-05-03 20:25 | 26.25304 | -80.15331 | 7601 ft | 264 kts | 292° |
| 2026-05-03 20:25 | 26.26171 | -80.17116 | 8419 ft | 266 kts | 298° |
| 2026-05-03 20:25 | 26.27150 | -80.18882 | 9219 ft | 269 kts | 299° |
| 2026-05-03 20:25 | 26.28157 | -80.20650 | 10066 ft | 271 kts | 299° |
| 2026-05-03 20:26 | 26.29193 | -80.22471 | 10573 ft | 287 kts | 299° |
| 2026-05-03 20:26 | 26.30297 | -80.24417 | 10900 ft | 306 kts | 299° |
| 2026-05-03 20:26 | 26.31456 | -80.26456 | 11429 ft | 315 kts | 299° |
| 2026-05-03 20:26 | 26.32643 | -80.28542 | 12102 ft | 319 kts | 299° |
| 2026-05-03 20:27 | 26.33840 | -80.30647 | 12691 ft | 323 kts | 299° |
| 2026-05-03 20:27 | 26.35031 | -80.32744 | 12966 ft | 325 kts | 299° |
| 2026-05-03 20:27 | 26.36240 | -80.34877 | 13015 ft | 326 kts | 299° |
| 2026-05-03 20:27 | 26.37465 | -80.37038 | 13290 ft | 331 kts | 299° |
| 2026-05-03 20:28 | 26.38693 | -80.39206 | 14042 ft | 332 kts | 298° |
| 2026-05-03 20:28 | 26.39926 | -80.41381 | 14882 ft | 331 kts | 298° |
| 2026-05-03 20:28 | 26.41161 | -80.43572 | 15588 ft | 336 kts | 298° |
| 2026-05-03 20:28 | 26.42412 | -80.45788 | 16342 ft | 338 kts | 298° |
| 2026-05-03 20:29 | 26.43673 | -80.48016 | 17030 ft | 341 kts | 297° |
| 2026-05-03 20:29 | 26.44944 | -80.50263 | 17622 ft | 344 kts | 298° |
| 2026-05-03 20:29 | 26.46329 | -80.52471 | 18222 ft | 350 kts | 303° |
| 2026-05-03 20:29 | 26.47984 | -80.54469 | 18736 ft | 359 kts | 311° |
| 2026-05-03 20:30 | 26.49975 | -80.56194 | 19253 ft | 368 kts | 320° |
| 2026-05-03 20:30 | 26.52273 | -80.57554 | 19753 ft | 379 kts | 330° |
| 2026-05-03 20:30 | 26.54797 | -80.58529 | 20242 ft | 388 kts | 336° |
| 2026-05-03 20:30 | 26.57415 | -80.59367 | 20759 ft | 392 kts | 337° |
| 2026-05-03 20:31 | 26.60060 | -80.60189 | 21263 ft | 396 kts | 337° |
| 2026-05-03 20:31 | 26.62732 | -80.61023 | 21783 ft | 400 kts | 336° |
| 2026-05-03 20:31 | 26.65419 | -80.61868 | 22289 ft | 403 kts | 336° |
| 2026-05-03 20:31 | 26.68136 | -80.62727 | 22797 ft | 407 kts | 336° |
| 2026-05-03 20:32 | 26.70843 | -80.63585 | 23287 ft | 411 kts | 336° |
| 2026-05-03 20:32 | 26.73607 | -80.64463 | 23750 ft | 414 kts | 336° |
| 2026-05-03 20:32 | 26.76394 | -80.65350 | 24169 ft | 417 kts | 336° |
| 2026-05-03 20:32 | 26.79200 | -80.66243 | 24586 ft | 420 kts | 336° |
| 2026-05-03 20:33 | 26.82014 | -80.67140 | 24995 ft | 422 kts | 336° |
| 2026-05-03 20:33 | 26.84851 | -80.68044 | 25409 ft | 425 kts | 336° |
| 2026-05-03 20:33 | 26.87704 | -80.68955 | 25841 ft | 428 kts | 335° |
| 2026-05-03 20:33 | 26.90580 | -80.69879 | 26221 ft | 430 kts | 334° |
| 2026-05-03 20:34 | 26.93433 | -80.70901 | 26636 ft | 431 kts | 333° |
| 2026-05-03 20:34 | 26.96279 | -80.71974 | 27065 ft | 432 kts | 332° |
| 2026-05-03 20:34 | 26.99142 | -80.73062 | 27468 ft | 435 kts | 332° |
| 2026-05-03 20:34 | 27.02017 | -80.74154 | 27837 ft | 438 kts | 332° |
| 2026-05-03 20:35 | 27.04913 | -80.75253 | 28216 ft | 440 kts | 332° |
| 2026-05-03 20:35 | 27.07824 | -80.76356 | 28596 ft | 443 kts | 332° |
| 2026-05-03 20:35 | 27.10753 | -80.77466 | 28941 ft | 445 kts | 332° |
| 2026-05-03 20:35 | 27.13657 | -80.78567 | 29049 ft | 447 kts | 332° |
| 2026-05-03 20:36 | 27.16610 | -80.79686 | 29057 ft | 448 kts | 332° |
| 2026-05-03 20:36 | 27.22521 | -80.81928 | 29055 ft | 448 kts | 332° |
| 2026-05-03 20:37 | 27.28444 | -80.84177 | 29055 ft | 448 kts | 332° |
| 2026-05-03 20:37 | 27.34334 | -80.86473 | 29054 ft | 446 kts | 331° |
| 2026-05-03 20:38 | 27.40132 | -80.88857 | 29054 ft | 446 kts | 331° |
| 2026-05-03 20:38 | 27.45974 | -80.91264 | 29081 ft | 446 kts | 331° |
| 2026-05-03 20:39 | 27.50833 | -80.93266 | 29068 ft | 446 kts | 331° |
| 2026-05-03 20:39 | 27.57602 | -80.96057 | 29074 ft | 445 kts | 331° |
| 2026-05-03 20:40 | 27.63424 | -80.98459 | 29073 ft | 445 kts | 331° |
| 2026-05-03 20:40 | 27.68265 | -81.00460 | 29073 ft | 445 kts | 331° |
| 2026-05-03 20:41 | 27.74079 | -81.02864 | 29067 ft | 445 kts | 331° |
| 2026-05-03 20:41 | 27.79909 | -81.05278 | 29079 ft | 445 kts | 331° |
| 2026-05-03 20:42 | 27.85742 | -81.07697 | 29071 ft | 446 kts | 331° |
| 2026-05-03 20:42 | 27.91548 | -81.10106 | 29087 ft | 447 kts | 331° |
| 2026-05-03 20:43 | 27.97382 | -81.12530 | 29083 ft | 447 kts | 331° |
| 2026-05-03 20:43 | 28.03228 | -81.14958 | 29082 ft | 447 kts | 331° |
| 2026-05-03 20:44 | 28.09154 | -81.17204 | 29122 ft | 450 kts | 333° |
| 2026-05-03 20:44 | 28.15144 | -81.19337 | 29094 ft | 452 kts | 334° |
| 2026-05-03 20:45 | 28.21142 | -81.21472 | 29099 ft | 452 kts | 333° |
| 2026-05-03 20:45 | 28.27149 | -81.23635 | 29086 ft | 452 kts | 333° |
| 2026-05-03 20:46 | 28.33106 | -81.25795 | 29083 ft | 452 kts | 333° |
| 2026-05-03 20:46 | 28.39102 | -81.27974 | 29109 ft | 452 kts | 333° |
| 2026-05-03 20:47 | 28.45091 | -81.30153 | 29082 ft | 452 kts | 333° |
| 2026-05-03 20:47 | 28.51077 | -81.32332 | 29088 ft | 451 kts | 333° |
| 2026-05-03 20:47 | 28.54138 | -81.33251 | 29089 ft | 462 kts | 343° |
| 2026-05-03 20:48 | 28.57359 | -81.33638 | 29095 ft | 467 kts | 347° |
| 2026-05-03 20:48 | 28.63833 | -81.34123 | 29092 ft | 469 kts | 348° |
| 2026-05-03 20:49 | 28.70356 | -81.34557 | 29103 ft | 469 kts | 348° |
| 2026-05-03 20:49 | 28.76867 | -81.34987 | 29091 ft | 469 kts | 348° |
| 2026-05-03 20:50 | 28.83377 | -81.35417 | 29104 ft | 468 kts | 348° |
| 2026-05-03 20:50 | 28.89884 | -81.35847 | 29014 ft | 465 kts | 348° |
| 2026-05-03 20:50 | 28.93091 | -81.36055 | 28627 ft | 458 kts | 348° |
| 2026-05-03 20:51 | 28.96239 | -81.36259 | 28256 ft | 449 kts | 348° |
| 2026-05-03 20:51 | 28.99344 | -81.36464 | 27857 ft | 443 kts | 348° |
| 2026-05-03 20:51 | 29.02376 | -81.36670 | 27412 ft | 439 kts | 348° |
| 2026-05-03 20:51 | 29.05407 | -81.36877 | 26936 ft | 434 kts | 348° |
| 2026-05-03 20:52 | 29.08410 | -81.37082 | 26508 ft | 429 kts | 348° |
| 2026-05-03 20:52 | 29.11386 | -81.37285 | 26265 ft | 425 kts | 348° |
| 2026-05-03 20:52 | 29.14343 | -81.37490 | 26020 ft | 426 kts | 348° |
| 2026-05-03 20:52 | 29.17300 | -81.37694 | 25520 ft | 425 kts | 348° |
| 2026-05-03 20:53 | 29.20235 | -81.37893 | 25112 ft | 420 kts | 348° |
| 2026-05-03 20:53 | 29.23137 | -81.38090 | 24686 ft | 415 kts | 348° |
| 2026-05-03 20:53 | 29.26006 | -81.38286 | 24256 ft | 411 kts | 348° |
| 2026-05-03 20:53 | 29.28853 | -81.38479 | 23856 ft | 408 kts | 348° |
| 2026-05-03 20:54 | 29.31681 | -81.38669 | 23365 ft | 404 kts | 348° |
| 2026-05-03 20:54 | 29.37229 | -81.39042 | 22353 ft | 398 kts | 348° |
| 2026-05-03 20:54 | 29.39982 | -81.39228 | 21798 ft | 396 kts | 349° |
| 2026-05-03 20:55 | 29.42733 | -81.39415 | 21211 ft | 395 kts | 349° |
| 2026-05-03 20:55 | 29.45477 | -81.39600 | 20652 ft | 393 kts | 349° |
| 2026-05-03 20:55 | 29.48206 | -81.39785 | 20091 ft | 391 kts | 349° |
| 2026-05-03 20:55 | 29.50885 | -81.39965 | 19567 ft | 389 kts | 349° |
| 2026-05-03 20:56 | 29.53571 | -81.40233 | 19057 ft | 381 kts | 343° |
| 2026-05-03 20:56 | 29.56026 | -81.41141 | 18609 ft | 363 kts | 325° |
| 2026-05-03 20:56 | 29.58023 | -81.42794 | 18117 ft | 347 kts | 311° |
| 2026-05-03 20:56 | 29.59737 | -81.44710 | 17597 ft | 341 kts | 308° |
| 2026-05-03 20:57 | 29.61388 | -81.46660 | 17091 ft | 337 kts | 308° |
| 2026-05-03 20:57 | 29.62997 | -81.48570 | 16595 ft | 335 kts | 308° |
| 2026-05-03 20:57 | 29.64613 | -81.50482 | 16103 ft | 332 kts | 308° |
| 2026-05-03 20:57 | 29.66227 | -81.52385 | 15613 ft | 330 kts | 308° |
| 2026-05-03 20:58 | 29.67826 | -81.54264 | 15142 ft | 327 kts | 309° |
| 2026-05-03 20:58 | 29.69421 | -81.56117 | 14670 ft | 325 kts | 309° |
| 2026-05-03 20:58 | 29.71012 | -81.57956 | 14220 ft | 322 kts | 309° |
| 2026-05-03 20:58 | 29.72590 | -81.59779 | 13719 ft | 320 kts | 309° |
| 2026-05-03 20:59 | 29.74160 | -81.61595 | 13237 ft | 318 kts | 309° |
| 2026-05-03 20:59 | 29.75738 | -81.63323 | 13025 ft | 318 kts | 315° |
| 2026-05-03 20:59 | 29.77671 | -81.64622 | 13010 ft | 328 kts | 334° |
| 2026-05-03 20:59 | 29.79936 | -81.65170 | 13015 ft | 337 kts | 347° |
| 2026-05-03 21:00 | 29.82277 | -81.65411 | 13015 ft | 339 kts | 350° |
| 2026-05-03 21:00 | 29.83836 | -81.65537 | 13016 ft | 339 kts | 350° |
| 2026-05-03 21:00 | 29.86972 | -81.65790 | 13015 ft | 330 kts | 350° |
| 2026-05-03 21:00 | 29.89204 | -81.65971 | 13013 ft | 313 kts | 349° |
| 2026-05-03 21:01 | 29.91355 | -81.66155 | 13005 ft | 309 kts | 349° |
| 2026-05-03 21:01 | 29.93522 | -81.66369 | 13001 ft | 320 kts | 348° |
| 2026-05-03 21:01 | 29.95758 | -81.66771 | 12864 ft | 327 kts | 341° |
| 2026-05-03 21:01 | 29.97890 | -81.67554 | 12360 ft | 322 kts | 334° |
| 2026-05-03 21:02 | 29.99944 | -81.68464 | 12164 ft | 310 kts | 333° |
| 2026-05-03 21:02 | 30.01918 | -81.69350 | 11961 ft | 299 kts | 333° |
| 2026-05-03 21:02 | 30.03841 | -81.70214 | 11642 ft | 293 kts | 333° |
| 2026-05-03 21:02 | 30.05730 | -81.71071 | 11253 ft | 290 kts | 333° |
| 2026-05-03 21:03 | 30.07600 | -81.71928 | 10871 ft | 288 kts | 333° |
| 2026-05-03 21:03 | 30.09453 | -81.72789 | 10487 ft | 286 kts | 333° |
| 2026-05-03 21:03 | 30.11293 | -81.73657 | 10117 ft | 284 kts | 333° |
| 2026-05-03 21:03 | 30.13088 | -81.74515 | 9717 ft | 281 kts | 333° |
| 2026-05-03 21:04 | 30.14887 | -81.75390 | 9281 ft | 280 kts | 334° |
| 2026-05-03 21:04 | 30.16668 | -81.76292 | 8812 ft | 279 kts | 333° |
| 2026-05-03 21:04 | 30.18440 | -81.77206 | 8374 ft | 278 kts | 333° |
| 2026-05-03 21:04 | 30.20192 | -81.78126 | 7960 ft | 276 kts | 333° |
| 2026-05-03 21:05 | 30.21929 | -81.79051 | 7540 ft | 273 kts | 333° |
| 2026-05-03 21:05 | 30.23650 | -81.79976 | 7140 ft | 272 kts | 333° |
| 2026-05-03 21:05 | 30.25354 | -81.80899 | 6776 ft | 268 kts | 333° |
| 2026-05-03 21:05 | 30.27035 | -81.81815 | 6479 ft | 263 kts | 333° |
| 2026-05-03 21:06 | 30.28654 | -81.82706 | 6310 ft | 253 kts | 333° |
| 2026-05-03 21:06 | 30.30216 | -81.83570 | 6060 ft | 246 kts | 333° |
| 2026-05-03 21:06 | 30.31772 | -81.84446 | 5515 ft | 253 kts | 334° |
| 2026-05-03 21:06 | 30.33365 | -81.85380 | 5027 ft | 258 kts | 333° |
| 2026-05-03 21:07 | 30.34931 | -81.86332 | 4700 ft | 251 kts | 332° |
| 2026-05-03 21:07 | 30.36306 | -81.87528 | 4361 ft | 244 kts | 317° |
| 2026-05-03 21:07 | 30.37456 | -81.88934 | 4035 ft | 237 kts | 314° |
| 2026-05-03 21:07 | 30.38540 | -81.90334 | 3726 ft | 236 kts | 313° |
| 2026-05-03 21:08 | 30.39651 | -81.91782 | 3397 ft | 238 kts | 313° |
| 2026-05-03 21:08 | 30.40730 | -81.93181 | 3171 ft | 233 kts | 314° |
| 2026-05-03 21:08 | 30.41792 | -81.94580 | 3008 ft | 231 kts | 313° |
| 2026-05-03 21:08 | 30.42859 | -81.95982 | 3002 ft | 234 kts | 314° |
| 2026-05-03 21:09 | 30.44071 | -81.97224 | 2887 ft | 231 kts | 335° |
| 2026-05-03 21:09 | 30.45601 | -81.97599 | 2561 ft | 225 kts | 7° |
| 2026-05-03 21:09 | 30.47021 | -81.96951 | 2266 ft | 219 kts | 41° |
| 2026-05-03 21:09 | 30.47836 | -81.95532 | 2099 ft | 211 kts | 75° |
| 2026-05-03 21:10 | 30.47853 | -81.93874 | 2025 ft | 206 kts | 99° |
| 2026-05-03 21:10 | 30.47540 | -81.92247 | 2022 ft | 206 kts | 102° |
| 2026-05-03 21:10 | 30.47184 | -81.90639 | 2040 ft | 207 kts | 103° |
| 2026-05-03 21:10 | 30.46818 | -81.89021 | 2009 ft | 208 kts | 103° |
| 2026-05-03 21:11 | 30.46449 | -81.87398 | 1995 ft | 209 kts | 103° |
| 2026-05-03 21:11 | 30.46090 | -81.85792 | 1996 ft | 209 kts | 104° |
| 2026-05-03 21:11 | 30.45789 | -81.84148 | 1990 ft | 208 kts | 92° |
| 2026-05-03 21:11 | 30.45860 | -81.82473 | 2001 ft | 208 kts | 78° |
| 2026-05-03 21:12 | 30.46281 | -81.80918 | 1986 ft | 191 kts | 69° |
| 2026-05-03 21:12 | 30.46717 | -81.79537 | 1795 ft | 177 kts | 71° |
| 2026-05-03 21:12 | 30.47118 | -81.78193 | 1535 ft | 177 kts | 70° |
| 2026-05-03 21:12 | 30.47515 | -81.76892 | 1336 ft | 161 kts | 70° |
| 2026-05-03 21:13 | 30.47874 | -81.75717 | 1091 ft | 150 kts | 70° |
| 2026-05-03 21:13 | 30.48215 | -81.74600 | 871 ft | 144 kts | 70° |
| 2026-05-03 21:13 | 30.48542 | -81.73529 | 680 ft | 140 kts | 70° |
| 2026-05-03 21:13 | 30.48867 | -81.72467 | 504 ft | 139 kts | 71° |
| 2026-05-03 21:14 | 30.49185 | -81.71435 | 320 ft | 136 kts | 70° |
| 2026-05-03 21:14 | 30.49501 | -81.70398 | 143 ft | 136 kts | 70° |
| 2026-05-03 21:14 | 30.49821 | -81.69378 | 44 ft | 125 kts | 69° |
| 2026-05-03 21:14 | 30.50055 | -81.68585 | 41 ft | 88 kts | 70° |
| 2026-05-03 21:15 | 30.50230 | -81.68013 | 41 ft | 51 kts | 70° |
| 2026-05-03 21:15 | 30.50334 | -81.67680 | 38 ft | 42 kts | 71° |
| 2026-05-03 21:15 | 30.50431 | -81.67365 | 32 ft | 37 kts | 70° |
| 2026-05-03 21:15 | 30.50471 | -81.67168 | 35 ft | 15 kts | 114° |
| 2026-05-03 21:16 | 30.50400 | -81.67117 | 36 ft | 2 kts | 161° |
| 2026-05-03 21:16 | 30.50400 | -81.67116 | 37 ft | 0 kts | 161° |
| 2026-05-03 21:16 | 30.50368 | -81.67107 | 37 ft | 9 kts | 175° |
| 2026-05-03 21:16 | 30.50310 | -81.67175 | 36 ft | 18 kts | 250° |
| 2026-05-03 21:17 | 30.50257 | -81.67344 | 33 ft | 26 kts | 251° |
| 2026-05-03 21:17 | 30.50221 | -81.67468 | 35 ft | 25 kts | 251° |
| 2026-05-03 21:17 | 30.50138 | -81.67738 | 39 ft | 28 kts | 251° |
| 2026-05-03 21:17 | 30.50073 | -81.67954 | 41 ft | 30 kts | 252° |
| 2026-05-03 21:18 | 30.50009 | -81.68160 | 40 ft | 25 kts | 251° |
| 2026-05-03 21:18 | 30.49949 | -81.68360 | 39 ft | 20 kts | 250° |
| 2026-05-03 21:18 | 30.49844 | -81.68454 | 39 ft | 21 kts | 193° |
| 2026-05-03 21:18 | 30.49687 | -81.68488 | 39 ft | 25 kts | 191° |
| 2026-05-03 21:19 | 30.49529 | -81.68521 | 41 ft | 14 kts | 178° |
| 2026-05-03 21:19 | 30.49461 | -81.68453 | 41 ft | 14 kts | 148° |
| 2026-05-03 21:19 | 30.49412 | -81.68462 | 43 ft | 6 kts | 229° |
| 2026-05-03 21:19 | 30.49394 | -81.68494 | 43 ft | 0 kts | 238° |
| 2026-05-03 21:20 | 30.49385 | -81.68511 | 42 ft | 0 kts | 238° |